Date,TemperatureHighF,TemperatureAvgF,TemperatureLowF,DewpointHighF,DewpointAvgF,DewpointLowF,HumidityHigh,HumidityAvg,HumidityLow,PressureMaxIn,PressureMinIn,WindSpeedMaxMPH,WindSpeedAvgMPH,GustSpeedMaxMPH,PrecipitationSumIn
2013-1-1,25.0,19.7,13.0,16.0,10.4,6.0,80,67,46,0.00,40.00,12,6,17,0.00
2013-1-2,27.0,17.2,8.0,15.0,9.9,5.0,89,73,52,0.00,40.00,14,6,20,0.00
2013-1-3,33.0,26.1,17.0,27.0,20.0,11.0,89,77,65,0.00,40.00,19,8,28,0.00
2013-1-4,36.0,23.8,11.0,24.0,16.9,8.0,89,75,57,0.00,40.00,18,8,26,0.00
2013-1-5,37.0,30.8,22.0,34.0,26.5,18.0,93,84,78,0.00,40.00,14,7,28,0.00
2013-1-6,37.0,28.2,22.0,35.0,21.6,16.0,92,76,63,0.00,40.00,26,11,37,0.00
2013-1-7,41.0,30.2,21.0,29.0,24.0,17.0,87,78,58,0.00,40.00,18,8,29,0.00
2013-1-8,46.0,36.5,29.0,34.0,29.3,25.0,85,75,60,0.00,40.00,14,7,25,0.00
2013-1-9,51.0,40.8,30.0,36.0,30.7,25.0,86,69,39,0.00,40.00,16,6,24,0.00
2013-1-10,52.0,37.7,28.0,50.0,32.3,24.0,95,82,52,0.00,40.00,14,6,21,0.00
2013-1-11,59.0,52.7,48.0,54.0,49.6,46.0,95,89,72,0.00,40.00,19,11,29,0.00
2013-1-12,53.0,42.6,29.0,49.0,36.2,25.0,93,79,66,0.00,40.00,14,9,24,0.00
2013-1-13,29.0,20.8,15.0,27.0,15.9,9.0,93,81,72,0.00,40.00,19,8,25,0.00
2013-1-14,27.0,18.0,13.0,15.0,10.9,-99.9,85,76,60,0.00,40.00,9,4,16,0.00
2013-1-15,30.0,24.0,15.0,19.0,15.8,12.0,91,72,56,0.00,40.00,9,3,12,0.00
2013-1-16,39.0,28.5,17.0,27.0,20.6,14.0,91,73,53,0.00,40.00,21,8,32,0.00
2013-1-17,36.0,32.0,25.0,30.0,21.9,15.0,91,68,45,0.00,40.00,14,6,21,0.00
2013-1-18,47.0,34.8,24.0,32.0,25.0,17.0,82,68,54,0.00,40.00,24,11,40,0.00
2013-1-19,54.0,43.8,35.0,38.0,32.7,23.0,79,65,51,0.00,40.00,26,13,42,0.00
2013-1-20,39.0,21.2,17.0,27.0,10.9,8.0,77,64,50,0.00,40.00,27,11,42,0.00
2013-1-21,18.0,10.9,6.0,12.0,1.5,-3.0,77,65,50,0.00,40.00,24,15,39,0.00
2013-1-22,16.0,9.7,3.0,2.0,-1.1,-4.0,76,62,48,0.00,40.00,13,8,20,0.00
2013-1-23,34.0,22.8,14.0,18.0,9.8,2.0,62,57,47,0.00,40.00,19,8,30,0.00
2013-1-24,24.0,19.5,10.0,10.0,6.4,1.0,70,56,47,0.00,40.00,14,8,26,0.00
2013-1-25,38.0,28.8,22.0,21.0,16.3,9.0,76,60,47,0.00,40.00,18,9,26,0.00
2013-1-26,34.0,24.7,14.0,17.0,11.9,7.0,76,58,45,0.00,40.00,13,5,24,0.00
2013-1-27,29.0,29.0,29.0,18.0,17.9,17.0,64,63,62,0.00,40.00,9,8,14,0.00
2013-1-28,58.0,53.3,49.0,56.0,51.8,48.0,95,95,95,0.00,40.00,13,4,25,0.00
2013-1-29,65.0,58.7,53.0,61.0,56.5,50.0,95,93,84,0.00,40.00,21,9,33,0.00
2013-1-30,53.0,34.7,21.0,51.0,31.3,14.0,95,87,73,0.00,40.00,29,14,43,0.00
2013-1-31,18.0,13.3,6.0,11.0,3.8,-3.0,72,65,58,0.00,40.00,31,19,43,0.00
2013-2-1,12.0,6.1,3.0,1.0,-2.4,-5.0,72,67,60,0.00,40.00,21,13,32,0.00
2013-3-6,31.0,28.7,27.0,24.0,23.1,22.0,83,79,75,0.00,40.00,14,6,19,0.00
2013-3-7,37.0,31.3,27.0,28.0,25.3,23.0,86,78,65,0.00,40.00,10,4,15,0.00
2013-3-8,46.0,36.5,27.0,37.0,30.5,25.0,91,80,66,0.00,40.00,16,9,26,0.00
2013-3-9,54.0,44.0,38.0,44.0,38.1,33.0,92,80,60,0.00,40.00,18,10,27,0.00
2013-3-10,53.0,50.7,47.0,51.0,48.2,42.0,94,91,70,0.00,40.00,19,7,30,0.00
2013-3-11,50.0,37.7,32.0,49.0,35.3,27.0,94,90,81,0.00,40.00,21,14,32,0.00
2013-3-12,39.0,32.5,27.0,34.0,26.2,21.0,93,78,62,0.00,40.00,23,13,38,0.00
2013-3-13,37.0,30.4,24.0,22.0,18.3,15.0,83,62,41,0.00,40.00,21,12,29,0.00
2013-3-14,31.0,30.1,30.0,21.0,20.3,19.0,71,67,62,0.00,40.00,5,4,6,0.00
2013-3-19,41.0,33.6,22.0,16.0,13.9,12.0,66,45,33,0.00,40.00,22,15,34,0.00
2013-3-30,57.0,53.6,50.0,45.0,40.7,-99.9,84,68,55,0.00,40.00,19,11,32,0.00
2013-3-31,62.0,51.7,43.0,46.0,40.2,28.0,92,68,38,0.00,40.00,27,12,37,0.00
2013-4-1,44.0,38.0,31.0,29.0,21.9,17.0,80,53,36,0.00,40.00,17,11,29,0.00
2013-4-2,47.0,37.3,26.0,25.0,19.7,16.0,79,52,29,0.00,40.00,17,7,27,0.00
2013-4-3,51.0,40.4,29.0,24.0,21.1,19.0,76,48,31,0.00,40.00,13,7,19,0.00
2013-4-4,61.0,48.0,35.0,31.0,26.4,21.0,65,44,30,0.00,40.00,11,5,18,0.00
2013-4-5,57.0,46.5,40.0,37.0,34.0,26.0,79,63,36,0.00,40.00,13,6,20,0.00
2013-4-9,80.0,74.5,66.0,63.0,61.8,59.0,80,65,51,0.00,40.00,26,13,37,0.00
2013-4-10,71.0,49.1,43.0,63.0,46.9,41.0,95,93,76,0.00,40.00,20,11,36,0.00
2013-4-11,50.0,46.0,40.0,47.0,42.2,31.0,95,87,71,0.00,40.00,21,11,33,0.00
2013-4-12,44.0,41.1,39.0,37.0,33.9,31.0,89,75,65,0.00,40.00,19,13,30,0.00
2013-4-13,53.0,44.9,37.0,35.0,30.3,24.0,75,57,43,0.00,40.00,21,11,37,0.00
2013-4-14,76.0,60.9,47.0,54.0,45.0,35.0,84,58,37,0.00,40.00,23,12,37,0.00
2013-4-15,66.0,56.6,47.0,57.0,51.7,43.0,93,84,60,0.00,40.00,20,8,32,0.00
2013-4-16,54.0,48.7,43.0,44.0,39.6,35.0,94,73,49,0.00,40.00,16,7,21,0.00
2013-4-17,58.0,49.5,46.0,57.0,43.9,37.0,95,81,68,0.00,40.00,21,10,34,0.00
2013-4-18,62.0,54.9,41.0,60.0,51.7,32.0,95,89,70,0.00,40.00,29,14,47,0.00
2013-4-19,43.0,39.6,37.0,33.0,29.7,27.0,76,67,60,0.00,40.00,27,18,47,0.00
2013-4-20,51.0,42.2,33.0,31.0,26.6,23.0,78,56,35,0.00,40.00,14,6,19,0.00
2013-4-21,58.0,47.9,38.0,40.0,34.0,29.0,74,59,49,0.00,40.00,19,12,29,0.00
2013-4-22,68.0,57.5,44.0,45.0,38.8,35.0,77,52,33,0.00,40.00,18,-6,25,0.00
2013-4-23,63.0,48.6,40.0,53.0,45.2,38.0,94,88,52,0.00,40.00,16,7,23,0.00
2013-4-24,52.0,43.6,38.0,38.0,32.8,27.0,93,68,43,0.00,40.00,17,10,24,0.00
2013-4-25,58.0,48.7,41.0,36.0,31.2,24.0,74,53,36,0.00,40.00,26,11,38,0.00
2013-4-26,65.0,54.7,44.0,48.0,41.0,31.0,82,60,50,0.00,40.00,18,10,26,0.00
2013-4-27,63.0,55.2,48.0,53.0,48.1,42.0,93,78,49,0.00,40.00,14,6,20,0.00
2013-4-28,69.0,58.6,53.0,58.0,52.5,51.0,94,81,55,0.00,40.00,12,6,20,0.00
2013-4-29,77.0,62.0,49.0,60.0,53.4,47.0,93,76,51,0.00,40.00,19,9,33,0.00
2013-4-30,87.0,76.0,63.0,62.0,57.5,54.0,90,57,35,0.00,40.00,21,12,29,0.00
2013-5-1,85.0,74.3,61.0,61.0,55.9,52.0,89,56,34,0.00,40.00,15,6,29,0.00
2013-5-2,72.0,62.9,48.0,60.0,55.4,46.0,95,77,58,0.00,40.00,14,6,24,0.00
2013-5-3,63.0,51.4,45.0,61.0,50.0,43.0,95,95,94,0.00,40.00,16,8,28,0.00
2013-5-4,64.0,59.4,54.0,59.0,55.9,52.0,94,88,70,0.00,40.00,14,7,26,0.00
2013-5-5,74.0,61.8,55.0,56.0,52.1,45.0,93,74,37,0.00,40.00,14,7,26,0.00
2013-5-6,78.0,66.5,56.0,54.0,48.4,41.0,87,57,32,0.00,40.00,14,6,24,0.00
2013-5-7,82.0,68.6,55.0,54.0,44.4,38.0,76,45,24,0.00,40.00,6,3,14,0.00
2013-5-8,84.0,70.1,54.0,57.0,51.0,46.0,89,56,28,0.00,40.00,8,2,11,0.00
2013-5-9,71.0,65.2,63.0,64.0,61.2,55.0,93,87,60,0.00,40.00,15,6,31,0.00
2013-5-10,63.0,56.0,52.0,61.0,51.1,-99.9,93,88,80,0.00,40.00,14,6,19,0.00
2013-5-11,62.0,55.0,48.0,52.0,38.9,-99.9,89,61,30,0.00,40.00,28,11,40,0.00
2013-5-12,59.0,50.1,40.0,33.0,29.3,25.0,71,46,32,0.00,40.00,19,9,32,0.00
2013-5-13,71.0,57.4,40.0,43.0,37.5,32.0,87,52,29,0.00,40.00,14,4,19,0.00
2013-5-14,92.0,73.4,55.0,63.0,54.2,40.0,78,53,37,0.00,40.00,18,10,27,0.00
2013-5-15,87.0,78.4,71.0,63.0,59.2,55.0,68,52,40,0.00,40.00,17,8,27,0.00
2013-5-16,87.0,66.4,63.0,64.0,39.9,-99.9,90,68,36,0.00,40.00,15,4,21,0.00
2013-5-17,82.0,71.5,63.0,69.0,55.0,-99.9,92,71,41,0.00,40.00,12,5,21,0.00
2013-5-18,82.0,73.4,65.0,67.0,63.9,61.0,93,75,50,0.00,40.00,11,6,18,0.00
2013-5-19,90.0,78.5,67.0,72.0,67.8,64.0,90,71,50,0.00,40.00,19,9,31,0.00
2013-5-20,86.0,75.6,64.0,71.0,64.3,61.0,93,70,44,0.00,40.00,44,11,62,0.00
2013-5-21,83.0,72.6,64.0,67.0,63.6,61.0,93,75,53,0.00,40.00,17,9,28,0.00
2013-5-22,73.0,67.9,62.0,66.0,60.1,55.0,94,77,54,0.00,40.00,15,8,24,0.00
2013-5-23,63.0,59.4,53.0,59.0,53.6,49.0,94,82,64,0.00,40.00,15,8,29,0.00
2013-5-24,68.0,56.3,43.0,49.0,41.0,35.0,91,60,35,0.00,40.00,10,6,16,0.00
2013-5-25,57.0,53.0,50.0,52.0,44.0,37.0,92,73,53,0.00,40.00,13,7,23,0.00
2013-5-26,65.0,57.7,52.0,61.0,54.4,49.0,94,89,81,0.00,40.00,20,8,24,0.00
2013-5-27,71.0,64.2,59.0,67.0,61.7,57.0,94,92,80,0.00,40.00,16,6,29,0.00
2013-5-28,78.0,71.3,65.0,73.0,67.1,63.0,93,86,73,0.00,40.00,18,9,32,0.00
2013-5-29,87.0,75.5,64.0,70.0,66.4,61.0,93,75,54,0.00,40.00,16,9,32,0.00
2013-5-30,85.0,75.4,64.0,72.0,67.7,61.0,93,78,61,0.00,40.00,23,13,41,0.00
2013-5-31,76.0,69.4,64.0,73.0,66.3,62.0,93,90,74,0.00,40.00,19,8,26,0.00
2013-6-1,74.0,68.5,64.0,69.0,62.6,-99.9,92,85,63,0.00,40.00,17,8,27,0.00
2013-6-2,65.0,61.9,58.0,60.0,55.8,50.0,92,81,71,0.00,40.00,14,8,21,0.00
2013-6-3,69.0,60.7,51.0,53.0,47.6,43.0,93,65,45,0.00,40.00,10,5,17,0.00
2013-6-4,75.0,65.4,54.0,58.0,51.1,48.0,87,62,42,0.00,40.00,14,6,20,0.00
2013-6-5,82.0,70.5,59.0,63.0,57.9,55.0,90,67,41,0.00,40.00,9,3,17,0.00
2013-6-6,75.0,66.2,61.0,63.0,58.8,54.0,89,77,63,0.00,40.00,14,6,21,0.00
2013-6-7,76.0,65.5,57.0,58.0,54.9,52.0,86,70,51,0.00,40.00,10,5,18,0.00
2013-6-8,81.0,69.3,55.0,60.0,52.9,46.0,81,58,42,0.00,40.00,7,3,11,0.00
2013-6-9,83.0,72.5,66.0,68.0,60.8,58.0,89,68,47,0.00,40.00,20,8,37,0.00
2013-6-10,81.0,71.1,63.0,66.0,61.6,59.0,93,74,49,0.00,40.00,10,4,16,0.00
2013-6-11,90.0,76.4,63.0,72.0,66.2,60.0,92,72,50,0.00,40.00,14,5,21,0.00
2013-6-12,95.0,84.0,73.0,74.0,71.8,70.0,91,69,44,0.00,40.00,23,10,37,0.00
2013-6-13,84.0,76.2,68.0,73.0,60.4,54.0,93,61,38,0.00,40.00,24,8,33,0.00
2013-6-14,82.0,71.9,61.0,66.0,58.0,55.0,83,63,41,0.00,40.00,14,4,19,0.00
2013-6-15,80.0,73.1,68.0,71.0,65.9,57.0,93,79,54,0.00,40.00,21,6,39,0.00
2013-6-16,85.0,75.0,67.0,72.0,68.3,65.0,93,81,60,0.00,40.00,11,5,19,0.00
2013-6-17,88.0,79.0,68.0,73.0,65.8,59.0,93,68,38,0.00,40.00,6,-5,11,0.00
2013-6-18,84.0,75.1,68.0,69.0,62.8,56.0,92,68,48,0.00,40.00,14,6,22,0.00
2013-6-19,87.0,73.4,58.0,64.0,57.5,50.0,77,59,38,0.00,40.00,10,4,14,0.00
2013-6-20,90.0,75.8,67.0,69.0,64.0,59.0,86,69,43,0.00,40.00,9,4,16,0.00
2013-6-22,87.0,78.8,70.0,76.0,71.4,66.0,88,78,68,0.00,40.00,20,8,36,0.00
2013-6-23,90.0,75.6,69.0,73.0,69.3,66.0,94,82,56,0.00,40.00,17,7,24,0.00
2013-6-24,90.0,74.3,68.0,76.0,69.1,66.0,93,85,61,0.00,40.00,13,6,19,0.00
2013-6-25,87.0,78.4,73.0,76.0,72.7,68.0,91,83,68,0.00,40.00,14,7,37,0.00
2013-6-26,87.0,78.7,69.0,77.0,73.0,67.0,92,83,64,0.00,40.00,16,6,22,0.00
2013-6-27,90.0,81.4,75.0,75.0,71.1,67.0,93,73,49,0.00,40.00,14,6,25,0.00
2013-6-28,85.0,77.3,69.0,69.0,63.1,58.0,90,64,41,0.00,40.00,22,8,32,0.00
2013-6-29,74.0,69.9,67.0,68.0,64.6,61.0,92,84,71,0.00,40.00,16,7,27,0.00
2013-6-30,80.0,70.2,63.0,68.0,60.8,53.0,91,73,51,0.00,40.00,14,8,27,0.00
2013-7-1,79.0,71.2,63.0,56.0,52.3,48.0,73,52,38,0.00,40.00,18,9,29,0.00
2013-7-2,76.0,68.3,63.0,58.0,55.7,53.0,79,65,48,0.00,40.00,11,8,27,0.00
2013-7-3,82.0,70.6,61.0,62.0,57.2,52.0,89,66,38,0.00,40.00,6,3,11,0.00
2013-7-4,87.0,76.2,65.0,66.0,62.2,59.0,89,64,45,0.00,40.00,12,6,19,0.00
2013-7-5,87.0,77.1,67.0,70.0,63.8,60.0,92,66,42,0.00,40.00,10,6,18,0.00
2013-7-6,88.0,77.0,68.0,72.0,67.2,64.0,92,74,48,0.00,40.00,11,5,16,0.00
2013-7-7,92.0,80.6,69.0,73.0,69.6,64.0,86,71,48,0.00,40.00,14,7,21,0.00
2013-7-8,88.0,80.2,74.0,78.0,73.8,72.0,93,82,64,0.00,40.00,17,6,26,0.00
2013-7-9,92.0,83.3,78.0,79.0,76.5,75.0,91,81,63,0.00,40.00,12,6,19,0.00
2013-7-10,90.0,80.1,73.0,77.0,66.4,-99.9,89,69,48,0.00,40.00,11,6,23,0.00
2013-7-11,83.0,75.2,67.0,68.0,60.3,54.0,92,63,40,0.00,40.00,11,4,16,0.00
2013-7-12,86.0,74.4,61.0,61.0,55.8,53.0,87,55,36,0.00,40.00,9,4,14,0.00
2013-7-13,85.0,77.2,66.0,66.0,61.4,59.0,86,60,42,0.00,40.00,11,6,17,0.00
2013-7-14,91.0,81.2,70.0,73.0,68.0,66.0,89,66,47,0.00,40.00,10,6,16,0.00
2013-7-15,91.0,82.5,75.0,77.0,73.8,71.0,91,76,56,0.00,40.00,10,5,14,0.00
2013-7-16,92.0,87.1,76.0,76.0,73.5,71.0,91,65,51,0.00,40.00,10,6,16,0.00
2013-7-17,96.0,87.5,77.0,78.0,74.7,72.0,89,68,49,0.00,40.00,8,3,11,0.00
2013-7-18,96.0,88.4,78.0,79.0,75.8,74.0,92,68,50,0.00,40.00,12,5,17,0.00
2013-7-19,96.0,87.1,77.0,77.0,74.5,71.0,90,69,45,0.00,40.00,16,8,24,0.00
2013-7-20,89.0,81.8,76.0,77.0,67.2,-99.9,89,65,42,0.00,40.00,9,5,18,0.00
2013-7-21,83.0,76.2,69.0,76.0,70.8,65.0,92,84,70,0.00,40.00,9,4,14,0.00
2013-7-22,90.0,80.2,69.0,76.0,70.6,67.0,93,75,50,0.00,40.00,11,5,16,0.00
2013-7-23,83.0,74.7,69.0,70.0,66.1,61.0,92,76,55,0.00,40.00,11,5,24,0.00
2013-7-24,79.0,69.9,61.0,62.0,55.9,52.0,90,63,41,0.00,40.00,10,5,18,0.00
2013-7-25,83.0,71.8,60.0,62.0,57.2,53.0,84,62,41,0.00,40.00,9,3,14,0.00
2013-7-26,75.0,68.6,64.0,71.0,64.0,60.0,93,86,70,0.00,40.00,12,5,21,0.00
2013-7-27,69.0,63.7,59.0,60.0,53.5,47.0,93,72,48,0.00,40.00,19,7,26,0.00
2013-7-28,74.0,64.1,53.0,57.0,52.4,50.0,90,67,49,0.00,40.00,16,7,26,0.00
2013-7-29,79.0,68.6,56.0,61.0,55.2,51.0,93,66,39,0.00,40.00,9,3,16,0.00
2013-7-30,71.0,68.6,66.0,69.0,64.2,56.0,93,87,60,0.00,40.00,11,6,19,0.00
2013-7-31,77.0,72.0,69.0,69.0,67.6,67.0,94,86,72,0.00,40.00,7,3,13,0.00
2013-8-1,84.0,75.2,66.0,67.0,62.7,57.0,93,69,43,0.00,40.00,14,3,21,0.00
2013-8-2,87.0,76.0,68.0,74.0,67.9,63.0,90,77,52,0.00,40.00,14,8,21,0.00
2013-8-3,83.0,74.7,66.0,70.0,61.7,56.0,93,68,41,0.00,40.00,8,4,15,0.00
2013-8-4,85.0,73.2,62.0,63.0,57.7,53.0,92,63,37,0.00,40.00,7,3,11,0.00
2013-8-5,78.0,70.9,63.0,69.0,62.8,59.0,90,76,61,0.00,40.00,11,5,19,0.00
2013-8-6,88.0,76.4,68.0,74.0,69.9,66.0,93,82,57,0.00,40.00,10,5,17,0.00
2013-8-7,88.0,79.5,72.0,78.0,72.4,69.0,92,80,58,0.00,40.00,9,5,14,0.00
2013-8-8,83.0,75.1,67.0,69.0,65.6,60.0,92,73,57,0.00,40.00,11,6,18,0.00
2013-8-9,85.0,74.8,63.0,70.0,62.3,57.0,86,67,44,0.00,40.00,7,3,11,0.00
2013-8-10,83.0,75.0,66.0,69.0,61.7,55.0,89,66,44,0.00,40.00,9,4,16,0.00
2013-8-11,87.0,74.8,61.0,67.0,61.4,56.0,93,67,41,0.00,40.00,9,3,14,0.00
2013-8-21,91.0,80.4,70.0,71.0,68.2,66.0,90,69,45,0.00,40.00,12,5,19,0.00
2013-8-22,83.0,77.4,72.0,72.0,70.0,67.0,90,79,66,0.00,40.00,15,5,21,0.00
2013-8-23,85.0,76.3,68.0,71.0,65.8,62.0,93,72,46,0.00,40.00,12,6,18,0.00
2013-8-24,90.0,76.1,64.0,69.0,61.3,-99.9,89,65,47,0.00,40.00,11,6,20,0.00
2013-8-25,92.0,80.8,70.0,70.0,66.7,64.0,82,64,45,0.00,40.00,11,6,16,0.00
2013-8-26,94.0,81.5,69.0,74.0,70.3,65.0,90,71,48,0.00,40.00,11,5,16,0.00
2013-8-27,95.0,80.5,74.0,75.0,72.4,71.0,92,79,48,0.00,40.00,14,6,21,0.00
2013-9-21,71.0,60.1,52.0,53.0,46.8,-99.9,92,68,40,0.00,40.00,14,5,21,0.00
2013-9-22,73.0,60.9,49.0,52.0,48.1,44.0,93,67,37,0.00,40.00,11,4,20,0.00
2013-9-23,76.0,63.4,49.0,49.0,46.3,44.0,90,58,33,0.00,40.00,11,6,20,0.00
2013-9-24,77.0,65.6,54.0,57.0,51.9,47.0,85,63,43,0.00,40.00,11,6,19,0.00
2013-9-25,81.0,67.8,56.0,59.0,54.7,51.0,84,65,44,0.00,40.00,11,6,17,0.00
2013-9-26,86.0,69.9,56.0,59.0,54.2,47.0,92,61,38,0.00,40.00,10,5,16,0.00
2013-9-27,84.0,71.0,56.0,58.0,51.6,47.0,84,53,31,0.00,40.00,16,6,21,0.00
2013-10-12,73.0,65.0,56.0,63.0,50.7,-99.9,90,65,35,0.00,40.00,11,6,19,0.00
2013-10-13,69.0,55.4,44.0,45.0,39.6,33.0,95,61,28,0.00,40.00,9,3,14,0.00
2013-10-14,68.0,54.7,42.0,46.0,39.8,34.0,94,63,29,0.00,40.00,14,6,21,0.00
2013-10-15,71.0,61.6,53.0,60.0,49.8,41.0,90,66,53,0.00,40.00,18,10,29,0.00
2013-10-16,55.0,52.0,49.0,45.0,43.0,42.0,77,72,66,0.00,40.00,14,8,25,0.00
2013-10-17,62.0,53.1,48.0,48.0,42.5,36.0,95,70,39,0.00,40.00,15,6,24,0.00
2013-10-18,55.0,48.3,44.0,44.0,39.8,35.0,92,74,47,0.00,40.00,19,7,24,0.00
2013-10-31,65.0,58.2,47.0,63.0,56.0,43.0,94,93,87,0.00,40.00,19,7,27,0.00
2013-11-1,54.0,48.3,44.0,46.0,43.5,40.0,92,84,60,0.00,40.00,16,8,25,0.00
2013-11-2,52.0,44.0,37.0,42.0,33.6,-99.9,93,73,46,0.00,40.00,19,5,27,0.00
2013-11-3,55.0,43.4,30.0,43.0,32.8,29.0,95,70,41,0.00,40.00,14,6,21,0.00
2013-11-4,58.0,52.6,47.0,46.0,39.8,34.0,75,62,53,0.00,40.00,17,10,31,0.00
2013-11-5,57.0,54.2,52.0,53.0,50.4,46.0,94,87,75,0.00,40.00,14,8,32,0.00
2013-11-6,58.0,48.0,37.0,56.0,44.0,30.0,94,86,72,0.00,40.00,18,9,32,0.00
2013-12-22,34.0,29.9,20.0,32.0,27.5,16.0,95,91,83,0.00,40.00,0,0,0,0.00
2013-12-23,20.0,12.5,5.0,16.0,5.8,-5.0,85,74,60,0.00,40.00,0,0,0,0.00
2013-12-24,21.0,10.3,0.0,11.0,1.5,-7.0,75,67,62,0.00,40.00,11,3,19,0.00
2013-12-25,31.0,27.0,22.0,28.0,22.2,11.0,92,82,64,0.00,40.00,14,10,21,0.00
2013-12-26,38.0,31.2,21.0,32.0,24.9,19.0,89,77,60,0.00,40.00,15,8,21,0.00
2013-12-27,47.0,36.1,27.0,34.0,30.6,25.0,94,82,58,0.00,40.00,11,6,19,0.00
2013-12-28,54.0,42.3,35.0,36.0,32.5,30.0,85,69,48,0.00,40.00,14,9,22,0.00